sensor_id;sensor_type;location;lat;lon;timestamp;P1;durP1;ratioP1;P2;durP2;ratioP2
41546;SDS011;27271;45.412;10.852;2023-05-07T00:00:05;1.83;;;1.35;;
41546;SDS011;27271;45.412;10.852;2023-05-07T00:03:31;1.75;;;1.23;;
41546;SDS011;27271;45.412;10.852;2023-05-07T00:06:54;2.78;;;2.33;;
41546;SDS011;27271;45.412;10.852;2023-05-07T00:10:17;2.63;;;1.40;;
41546;SDS011;27271;45.412;10.852;2023-05-07T00:13:39;4.80;;;1.77;;
41546;SDS011;27271;45.412;10.852;2023-05-07T00:17:01;2.25;;;1.70;;
41546;SDS011;27271;45.412;10.852;2023-05-07T00:20:23;2.88;;;1.90;;
41546;SDS011;27271;45.412;10.852;2023-05-07T00:23:45;3.10;;;2.35;;
41546;SDS011;27271;45.412;10.852;2023-05-07T00:27:08;1.67;;;1.50;;
41546;SDS011;27271;45.412;10.852;2023-05-07T00:30:30;2.60;;;2.05;;
41546;SDS011;27271;45.412;10.852;2023-05-07T00:33:52;3.22;;;1.38;;
41546;SDS011;27271;45.412;10.852;2023-05-07T00:37:14;2.08;;;1.83;;
41546;SDS011;27271;45.412;10.852;2023-05-07T00:40:36;2.33;;;1.85;;
41546;SDS011;27271;45.412;10.852;2023-05-07T00:43:58;4.97;;;1.92;;
41546;SDS011;27271;45.412;10.852;2023-05-07T00:47:20;4.43;;;1.92;;
41546;SDS011;27271;45.412;10.852;2023-05-07T00:50:42;1.38;;;0.90;;
41546;SDS011;27271;45.412;10.852;2023-05-07T00:54:05;1.95;;;1.63;;
41546;SDS011;27271;45.412;10.852;2023-05-07T00:57:27;1.73;;;1.40;;
41546;SDS011;27271;45.412;10.852;2023-05-07T01:00:50;3.33;;;1.60;;
41546;SDS011;27271;45.412;10.852;2023-05-07T01:04:12;1.77;;;1.58;;
41546;SDS011;27271;45.412;10.852;2023-05-07T01:07:34;2.53;;;1.83;;
41546;SDS011;27271;45.412;10.852;2023-05-07T01:10:57;3.08;;;2.17;;
41546;SDS011;27271;45.412;10.852;2023-05-07T01:14:21;2.03;;;1.48;;
41546;SDS011;27271;45.412;10.852;2023-05-07T01:17:44;2.13;;;1.33;;
41546;SDS011;27271;45.412;10.852;2023-05-07T01:21:16;2.80;;;1.92;;
41546;SDS011;27271;45.412;10.852;2023-05-07T01:24:39;3.10;;;2.35;;
41546;SDS011;27271;45.412;10.852;2023-05-07T01:28:03;2.15;;;1.55;;
41546;SDS011;27271;45.412;10.852;2023-05-07T01:31:28;1.60;;;1.50;;
41546;SDS011;27271;45.412;10.852;2023-05-07T01:34:51;3.92;;;1.65;;
41546;SDS011;27271;45.412;10.852;2023-05-07T01:38:15;2.72;;;1.55;;
41546;SDS011;27271;45.412;10.852;2023-05-07T01:41:39;4.93;;;2.28;;
41546;SDS011;27271;45.412;10.852;2023-05-07T01:45:01;1.67;;;1.58;;
41546;SDS011;27271;45.412;10.852;2023-05-07T01:48:24;2.25;;;2.05;;
41546;SDS011;27271;45.412;10.852;2023-05-07T01:51:47;3.78;;;2.65;;
41546;SDS011;27271;45.412;10.852;2023-05-07T01:55:09;4.05;;;2.67;;
41546;SDS011;27271;45.412;10.852;2023-05-07T01:58:32;3.72;;;3.40;;
41546;SDS011;27271;45.412;10.852;2023-05-07T02:01:55;6.30;;;2.13;;
41546;SDS011;27271;45.412;10.852;2023-05-07T02:05:17;13.60;;;5.25;;
41546;SDS011;27271;45.412;10.852;2023-05-07T02:08:44;3.70;;;2.95;;
41546;SDS011;27271;45.412;10.852;2023-05-07T02:12:08;8.05;;;3.80;;
41546;SDS011;27271;45.412;10.852;2023-05-07T02:15:30;4.90;;;2.45;;
41546;SDS011;27271;45.412;10.852;2023-05-07T02:18:54;2.58;;;2.33;;
41546;SDS011;27271;45.412;10.852;2023-05-07T02:22:18;4.15;;;2.97;;
41546;SDS011;27271;45.412;10.852;2023-05-07T02:25:40;5.07;;;3.38;;
41546;SDS011;27271;45.412;10.852;2023-05-07T02:29:02;2.88;;;1.90;;
41546;SDS011;27271;45.412;10.852;2023-05-07T02:32:25;5.47;;;3.35;;
41546;SDS011;27271;45.412;10.852;2023-05-07T02:35:47;5.35;;;2.53;;
41546;SDS011;27271;45.412;10.852;2023-05-07T02:39:10;4.03;;;3.40;;
41546;SDS011;27271;45.412;10.852;2023-05-07T02:42:32;6.05;;;2.85;;
41546;SDS011;27271;45.412;10.852;2023-05-07T02:46:04;5.50;;;2.17;;
41546;SDS011;27271;45.412;10.852;2023-05-07T02:49:31;6.88;;;2.50;;
41546;SDS011;27271;45.412;10.852;2023-05-07T02:52:53;5.22;;;3.15;;
41546;SDS011;27271;45.412;10.852;2023-05-07T02:56:16;5.53;;;3.08;;
41546;SDS011;27271;45.412;10.852;2023-05-07T02:59:38;3.85;;;2.40;;
41546;SDS011;27271;45.412;10.852;2023-05-07T03:03:00;5.90;;;3.20;;
41546;SDS011;27271;45.412;10.852;2023-05-07T03:06:23;3.60;;;1.48;;
41546;SDS011;27271;45.412;10.852;2023-05-07T03:09:45;5.70;;;3.30;;
41546;SDS011;27271;45.412;10.852;2023-05-07T03:13:07;8.43;;;3.17;;
41546;SDS011;27271;45.412;10.852;2023-05-07T03:16:29;6.03;;;3.03;;
41546;SDS011;27271;45.412;10.852;2023-05-07T03:19:51;2.50;;;1.77;;
41546;SDS011;27271;45.412;10.852;2023-05-07T03:23:13;3.58;;;2.97;;
41546;SDS011;27271;45.412;10.852;2023-05-07T03:26:35;3.38;;;2.80;;
41546;SDS011;27271;45.412;10.852;2023-05-07T03:29:58;7.10;;;3.13;;
41546;SDS011;27271;45.412;10.852;2023-05-07T03:33:20;3.78;;;2.10;;
41546;SDS011;27271;45.412;10.852;2023-05-07T03:36:43;3.67;;;3.20;;
41546;SDS011;27271;45.412;10.852;2023-05-07T03:40:07;4.65;;;3.38;;
41546;SDS011;27271;45.412;10.852;2023-05-07T03:43:38;3.92;;;3.00;;
41546;SDS011;27271;45.412;10.852;2023-05-07T03:47:04;4.38;;;3.13;;
41546;SDS011;27271;45.412;10.852;2023-05-07T03:50:26;4.80;;;2.33;;
41546;SDS011;27271;45.412;10.852;2023-05-07T03:53:48;4.22;;;3.13;;
41546;SDS011;27271;45.412;10.852;2023-05-07T03:57:11;5.43;;;2.72;;
41546;SDS011;27271;45.412;10.852;2023-05-07T04:00:33;2.95;;;2.58;;
41546;SDS011;27271;45.412;10.852;2023-05-07T04:04:08;3.35;;;2.95;;
41546;SDS011;27271;45.412;10.852;2023-05-07T04:07:31;3.20;;;2.90;;
41546;SDS011;27271;45.412;10.852;2023-05-07T04:10:56;5.68;;;3.25;;
41546;SDS011;27271;45.412;10.852;2023-05-07T04:14:22;3.65;;;1.75;;
41546;SDS011;27271;45.412;10.852;2023-05-07T04:17:45;3.17;;;2.35;;
41546;SDS011;27271;45.412;10.852;2023-05-07T04:21:15;3.63;;;2.63;;
41546;SDS011;27271;45.412;10.852;2023-05-07T04:24:38;4.53;;;3.03;;
41546;SDS011;27271;45.412;10.852;2023-05-07T04:28:01;5.40;;;3.13;;
41546;SDS011;27271;45.412;10.852;2023-05-07T04:31:24;4.22;;;2.75;;
41546;SDS011;27271;45.412;10.852;2023-05-07T04:34:49;5.38;;;3.95;;
41546;SDS011;27271;45.412;10.852;2023-05-07T04:38:11;3.10;;;2.80;;
41546;SDS011;27271;45.412;10.852;2023-05-07T04:41:35;4.78;;;3.60;;
41546;SDS011;27271;45.412;10.852;2023-05-07T04:45:00;6.15;;;2.72;;
41546;SDS011;27271;45.412;10.852;2023-05-07T04:48:26;4.25;;;2.83;;
41546;SDS011;27271;45.412;10.852;2023-05-07T04:51:48;11.13;;;3.88;;
41546;SDS011;27271;45.412;10.852;2023-05-07T04:55:14;3.30;;;2.70;;
41546;SDS011;27271;45.412;10.852;2023-05-07T04:58:36;7.78;;;4.03;;
41546;SDS011;27271;45.412;10.852;2023-05-07T05:01:59;7.47;;;4.07;;
41546;SDS011;27271;45.412;10.852;2023-05-07T05:05:22;6.68;;;3.60;;
41546;SDS011;27271;45.412;10.852;2023-05-07T05:08:47;6.28;;;3.72;;
41546;SDS011;27271;45.412;10.852;2023-05-07T05:12:09;4.80;;;2.08;;
41546;SDS011;27271;45.412;10.852;2023-05-07T05:15:32;3.15;;;2.78;;
41546;SDS011;27271;45.412;10.852;2023-05-07T05:18:56;3.90;;;3.13;;
41546;SDS011;27271;45.412;10.852;2023-05-07T05:22:18;5.68;;;3.92;;
41546;SDS011;27271;45.412;10.852;2023-05-07T05:25:42;4.18;;;3.20;;
41546;SDS011;27271;45.412;10.852;2023-05-07T05:29:07;5.95;;;3.50;;
41546;SDS011;27271;45.412;10.852;2023-05-07T05:32:32;10.15;;;4.13;;
41546;SDS011;27271;45.412;10.852;2023-05-07T05:35:55;6.63;;;3.63;;
41546;SDS011;27271;45.412;10.852;2023-05-07T05:43:01;5.80;;;4.05;;
41546;SDS011;27271;45.412;10.852;2023-05-07T05:46:25;4.45;;;3.38;;
41546;SDS011;27271;45.412;10.852;2023-05-07T05:49:48;7.55;;;4.47;;
41546;SDS011;27271;45.412;10.852;2023-05-07T05:53:10;5.65;;;3.85;;
41546;SDS011;27271;45.412;10.852;2023-05-07T05:56:33;4.05;;;3.13;;
41546;SDS011;27271;45.412;10.852;2023-05-07T05:59:57;8.55;;;3.97;;
41546;SDS011;27271;45.412;10.852;2023-05-07T06:03:19;7.05;;;3.45;;
41546;SDS011;27271;45.412;10.852;2023-05-07T06:06:42;8.05;;;4.47;;
41546;SDS011;27271;45.412;10.852;2023-05-07T06:10:04;4.90;;;3.45;;
41546;SDS011;27271;45.412;10.852;2023-05-07T06:13:27;6.50;;;3.67;;
41546;SDS011;27271;45.412;10.852;2023-05-07T06:16:50;6.05;;;3.25;;
41546;SDS011;27271;45.412;10.852;2023-05-07T06:20:12;6.40;;;4.47;;
41546;SDS011;27271;45.412;10.852;2023-05-07T06:23:35;8.43;;;3.67;;
41546;SDS011;27271;45.412;10.852;2023-05-07T06:26:58;5.65;;;3.58;;
41546;SDS011;27271;45.412;10.852;2023-05-07T06:30:22;5.97;;;3.53;;
41546;SDS011;27271;45.412;10.852;2023-05-07T06:33:45;5.60;;;3.90;;
41546;SDS011;27271;45.412;10.852;2023-05-07T06:37:11;7.55;;;3.97;;
41546;SDS011;27271;45.412;10.852;2023-05-07T06:40:48;10.82;;;5.10;;
41546;SDS011;27271;45.412;10.852;2023-05-07T06:44:11;7.15;;;3.63;;
41546;SDS011;27271;45.412;10.852;2023-05-07T06:47:40;6.93;;;4.05;;
41546;SDS011;27271;45.412;10.852;2023-05-07T06:51:03;6.72;;;4.35;;
41546;SDS011;27271;45.412;10.852;2023-05-07T06:54:26;7.53;;;3.05;;
41546;SDS011;27271;45.412;10.852;2023-05-07T06:57:48;6.05;;;3.30;;
41546;SDS011;27271;45.412;10.852;2023-05-07T07:01:11;8.35;;;4.07;;
41546;SDS011;27271;45.412;10.852;2023-05-07T07:04:35;5.57;;;3.40;;
41546;SDS011;27271;45.412;10.852;2023-05-07T07:08:00;5.45;;;3.78;;
41546;SDS011;27271;45.412;10.852;2023-05-07T07:11:23;6.45;;;4.30;;
41546;SDS011;27271;45.412;10.852;2023-05-07T07:14:45;6.35;;;3.08;;
41546;SDS011;27271;45.412;10.852;2023-05-07T07:18:08;6.10;;;3.40;;
41546;SDS011;27271;45.412;10.852;2023-05-07T07:21:31;8.40;;;4.28;;
41546;SDS011;27271;45.412;10.852;2023-05-07T07:24:53;6.72;;;3.65;;
41546;SDS011;27271;45.412;10.852;2023-05-07T07:28:17;8.45;;;4.60;;
41546;SDS011;27271;45.412;10.852;2023-05-07T07:31:42;8.85;;;4.38;;
41546;SDS011;27271;45.412;10.852;2023-05-07T07:35:05;6.18;;;4.30;;
41546;SDS011;27271;45.412;10.852;2023-05-07T07:38:27;9.18;;;5.75;;
41546;SDS011;27271;45.412;10.852;2023-05-07T07:41:50;8.50;;;5.10;;
41546;SDS011;27271;45.412;10.852;2023-05-07T07:45:14;8.93;;;4.35;;
41546;SDS011;27271;45.412;10.852;2023-05-07T07:48:41;3.42;;;2.78;;
41546;SDS011;27271;45.412;10.852;2023-05-07T07:52:03;4.40;;;3.17;;
41546;SDS011;27271;45.412;10.852;2023-05-07T07:55:28;6.72;;;4.32;;
41546;SDS011;27271;45.412;10.852;2023-05-07T07:58:54;7.45;;;3.90;;
41546;SDS011;27271;45.412;10.852;2023-05-07T08:02:16;11.05;;;4.38;;
41546;SDS011;27271;45.412;10.852;2023-05-07T08:05:40;7.70;;;4.45;;
41546;SDS011;27271;45.412;10.852;2023-05-07T08:09:02;6.15;;;4.05;;
41546;SDS011;27271;45.412;10.852;2023-05-07T08:12:24;5.57;;;3.28;;
41546;SDS011;27271;45.412;10.852;2023-05-07T08:15:47;7.38;;;3.55;;
41546;SDS011;27271;45.412;10.852;2023-05-07T08:19:10;8.68;;;3.63;;
41546;SDS011;27271;45.412;10.852;2023-05-07T08:22:32;6.35;;;3.60;;
41546;SDS011;27271;45.412;10.852;2023-05-07T08:25:56;10.15;;;5.07;;
41546;SDS011;27271;45.412;10.852;2023-05-07T08:29:19;8.32;;;4.25;;
41546;SDS011;27271;45.412;10.852;2023-05-07T08:32:41;9.85;;;5.20;;
41546;SDS011;27271;45.412;10.852;2023-05-07T08:36:04;6.22;;;3.72;;
41546;SDS011;27271;45.412;10.852;2023-05-07T08:39:26;6.40;;;3.17;;
41546;SDS011;27271;45.412;10.852;2023-05-07T08:42:49;6.18;;;3.80;;
41546;SDS011;27271;45.412;10.852;2023-05-07T08:46:17;7.82;;;5.20;;
41546;SDS011;27271;45.412;10.852;2023-05-07T08:49:48;6.28;;;4.40;;
41546;SDS011;27271;45.412;10.852;2023-05-07T08:53:12;9.95;;;4.10;;
41546;SDS011;27271;45.412;10.852;2023-05-07T08:56:36;6.07;;;4.75;;
41546;SDS011;27271;45.412;10.852;2023-05-07T08:59:58;7.78;;;4.38;;
41546;SDS011;27271;45.412;10.852;2023-05-07T09:03:21;5.95;;;4.40;;
41546;SDS011;27271;45.412;10.852;2023-05-07T09:06:46;8.70;;;4.50;;
41546;SDS011;27271;45.412;10.852;2023-05-07T09:10:09;5.72;;;4.30;;
41546;SDS011;27271;45.412;10.852;2023-05-07T09:13:34;5.60;;;4.32;;
41546;SDS011;27271;45.412;10.852;2023-05-07T09:16:57;7.43;;;4.53;;
41546;SDS011;27271;45.412;10.852;2023-05-07T09:20:20;5.45;;;3.63;;
41546;SDS011;27271;45.412;10.852;2023-05-07T09:23:42;8.07;;;4.53;;
41546;SDS011;27271;45.412;10.852;2023-05-07T09:27:05;6.55;;;4.85;;
41546;SDS011;27271;45.412;10.852;2023-05-07T09:30:31;8.15;;;4.40;;
41546;SDS011;27271;45.412;10.852;2023-05-07T09:33:55;6.03;;;3.83;;
41546;SDS011;27271;45.412;10.852;2023-05-07T09:37:23;8.63;;;3.97;;
41546;SDS011;27271;45.412;10.852;2023-05-07T09:40:48;10.68;;;6.70;;
41546;SDS011;27271;45.412;10.852;2023-05-07T09:44:53;4.45;;;3.47;;
41546;SDS011;27271;45.412;10.852;2023-05-07T09:48:18;8.30;;;4.43;;
41546;SDS011;27271;45.412;10.852;2023-05-07T09:51:45;6.25;;;4.00;;
41546;SDS011;27271;45.412;10.852;2023-05-07T09:55:10;7.75;;;4.88;;
41546;SDS011;27271;45.412;10.852;2023-05-07T09:58:34;6.97;;;3.58;;
41546;SDS011;27271;45.412;10.852;2023-05-07T10:02:00;8.30;;;4.82;;
41546;SDS011;27271;45.412;10.852;2023-05-07T10:05:28;4.70;;;3.42;;
41546;SDS011;27271;45.412;10.852;2023-05-07T10:08:53;7.97;;;4.13;;
41546;SDS011;27271;45.412;10.852;2023-05-07T10:12:18;7.63;;;4.72;;
41546;SDS011;27271;45.412;10.852;2023-05-07T10:15:41;6.53;;;4.30;;
41546;SDS011;27271;45.412;10.852;2023-05-07T10:19:04;4.60;;;3.67;;
41546;SDS011;27271;45.412;10.852;2023-05-07T10:22:28;8.52;;;4.57;;
41546;SDS011;27271;45.412;10.852;2023-05-07T10:25:54;6.00;;;3.40;;
41546;SDS011;27271;45.412;10.852;2023-05-07T10:33:12;8.27;;;3.65;;
41546;SDS011;27271;45.412;10.852;2023-05-07T10:36:37;4.63;;;3.20;;
41546;SDS011;27271;45.412;10.852;2023-05-07T10:40:02;5.50;;;3.25;;
41546;SDS011;27271;45.412;10.852;2023-05-07T10:43:25;5.75;;;3.40;;
41546;SDS011;27271;45.412;10.852;2023-05-07T10:47:09;6.97;;;5.10;;
41546;SDS011;27271;45.412;10.852;2023-05-07T10:50:36;5.00;;;3.67;;
41546;SDS011;27271;45.412;10.852;2023-05-07T10:57:37;9.10;;;4.53;;
41546;SDS011;27271;45.412;10.852;2023-05-07T11:02:06;3.25;;;2.92;;
41546;SDS011;27271;45.412;10.852;2023-05-07T11:05:28;3.72;;;2.40;;
41546;SDS011;27271;45.412;10.852;2023-05-07T11:09:17;4.97;;;3.75;;
41546;SDS011;27271;45.412;10.852;2023-05-07T11:12:51;5.55;;;3.35;;
41546;SDS011;27271;45.412;10.852;2023-05-07T11:16:22;4.70;;;3.00;;
41546;SDS011;27271;45.412;10.852;2023-05-07T11:19:55;6.63;;;3.97;;
41546;SDS011;27271;45.412;10.852;2023-05-07T11:27:22;9.57;;;4.47;;
41546;SDS011;27271;45.412;10.852;2023-05-07T11:30:46;4.40;;;3.10;;
41546;SDS011;27271;45.412;10.852;2023-05-07T11:34:11;7.55;;;5.22;;
41546;SDS011;27271;45.412;10.852;2023-05-07T11:37:35;6.28;;;3.33;;
41546;SDS011;27271;45.412;10.852;2023-05-07T11:40:59;6.50;;;2.90;;
41546;SDS011;27271;45.412;10.852;2023-05-07T11:44:22;6.20;;;3.17;;
41546;SDS011;27271;45.412;10.852;2023-05-07T11:47:44;6.95;;;4.22;;
41546;SDS011;27271;45.412;10.852;2023-05-07T11:51:06;5.18;;;3.13;;
41546;SDS011;27271;45.412;10.852;2023-05-07T11:54:37;6.13;;;2.97;;
41546;SDS011;27271;45.412;10.852;2023-05-07T11:57:59;6.53;;;3.28;;
41546;SDS011;27271;45.412;10.852;2023-05-07T12:01:21;4.57;;;3.22;;
41546;SDS011;27271;45.412;10.852;2023-05-07T12:04:43;3.78;;;3.03;;
41546;SDS011;27271;45.412;10.852;2023-05-07T12:08:06;6.57;;;3.58;;
41546;SDS011;27271;45.412;10.852;2023-05-07T12:11:28;6.25;;;3.80;;
41546;SDS011;27271;45.412;10.852;2023-05-07T12:14:50;5.40;;;3.75;;
41546;SDS011;27271;45.412;10.852;2023-05-07T12:18:12;5.15;;;2.47;;
41546;SDS011;27271;45.412;10.852;2023-05-07T12:21:34;5.25;;;3.20;;
41546;SDS011;27271;45.412;10.852;2023-05-07T12:24:57;6.18;;;3.30;;
41546;SDS011;27271;45.412;10.852;2023-05-07T12:28:20;4.75;;;2.97;;
41546;SDS011;27271;45.412;10.852;2023-05-07T12:31:42;5.50;;;3.35;;
41546;SDS011;27271;45.412;10.852;2023-05-07T12:35:05;5.68;;;3.50;;
41546;SDS011;27271;45.412;10.852;2023-05-07T12:38:33;6.47;;;2.85;;
41546;SDS011;27271;45.412;10.852;2023-05-07T12:41:59;5.88;;;3.20;;
41546;SDS011;27271;45.412;10.852;2023-05-07T12:45:21;5.95;;;3.38;;
41546;SDS011;27271;45.412;10.852;2023-05-07T12:48:44;5.85;;;3.38;;
41546;SDS011;27271;45.412;10.852;2023-05-07T12:52:09;12.52;;;3.33;;
41546;SDS011;27271;45.412;10.852;2023-05-07T12:55:40;4.07;;;2.60;;
41546;SDS011;27271;45.412;10.852;2023-05-07T12:59:03;4.90;;;2.70;;
41546;SDS011;27271;45.412;10.852;2023-05-07T13:02:59;2.80;;;2.42;;
41546;SDS011;27271;45.412;10.852;2023-05-07T13:06:15;3.13;;;2.40;;
41546;SDS011;27271;45.412;10.852;2023-05-07T13:09:37;4.40;;;2.78;;
41546;SDS011;27271;45.412;10.852;2023-05-07T13:12:59;5.38;;;2.38;;
41546;SDS011;27271;45.412;10.852;2023-05-07T13:16:21;7.30;;;3.28;;
41546;SDS011;27271;45.412;10.852;2023-05-07T13:19:43;3.88;;;2.63;;
41546;SDS011;27271;45.412;10.852;2023-05-07T13:23:05;3.30;;;2.50;;
41546;SDS011;27271;45.412;10.852;2023-05-07T13:26:29;6.65;;;2.83;;
41546;SDS011;27271;45.412;10.852;2023-05-07T13:29:52;3.17;;;2.40;;
41546;SDS011;27271;45.412;10.852;2023-05-07T13:33:14;4.45;;;2.38;;
41546;SDS011;27271;45.412;10.852;2023-05-07T13:36:37;4.13;;;3.03;;
41546;SDS011;27271;45.412;10.852;2023-05-07T13:40:01;3.60;;;2.28;;
41546;SDS011;27271;45.412;10.852;2023-05-07T13:43:24;4.90;;;2.88;;
41546;SDS011;27271;45.412;10.852;2023-05-07T13:46:46;3.08;;;2.17;;
41546;SDS011;27271;45.412;10.852;2023-05-07T13:50:08;4.07;;;2.72;;
41546;SDS011;27271;45.412;10.852;2023-05-07T13:53:33;4.50;;;2.80;;
41546;SDS011;27271;45.412;10.852;2023-05-07T13:56:55;4.53;;;2.60;;
41546;SDS011;27271;45.412;10.852;2023-05-07T14:00:17;4.22;;;2.97;;
41546;SDS011;27271;45.412;10.852;2023-05-07T14:03:39;3.97;;;2.38;;
41546;SDS011;27271;45.412;10.852;2023-05-07T14:07:01;6.07;;;3.25;;
41546;SDS011;27271;45.412;10.852;2023-05-07T14:10:23;3.10;;;2.65;;
41546;SDS011;27271;45.412;10.852;2023-05-07T14:13:46;3.05;;;1.85;;
41546;SDS011;27271;45.412;10.852;2023-05-07T14:17:08;6.38;;;2.80;;
41546;SDS011;27271;45.412;10.852;2023-05-07T14:20:30;5.15;;;2.60;;
41546;SDS011;27271;45.412;10.852;2023-05-07T14:23:52;3.28;;;2.17;;
41546;SDS011;27271;45.412;10.852;2023-05-07T14:27:14;5.80;;;3.05;;
41546;SDS011;27271;45.412;10.852;2023-05-07T14:30:36;5.32;;;3.33;;
41546;SDS011;27271;45.412;10.852;2023-05-07T14:33:58;6.95;;;3.95;;
41546;SDS011;27271;45.412;10.852;2023-05-07T14:37:20;5.82;;;3.15;;
41546;SDS011;27271;45.412;10.852;2023-05-07T14:40:42;5.03;;;3.10;;
41546;SDS011;27271;45.412;10.852;2023-05-07T14:44:05;3.88;;;2.75;;
41546;SDS011;27271;45.412;10.852;2023-05-07T14:47:27;3.88;;;2.35;;
41546;SDS011;27271;45.412;10.852;2023-05-07T14:50:50;4.57;;;2.13;;
41546;SDS011;27271;45.412;10.852;2023-05-07T14:54:12;4.43;;;2.55;;
41546;SDS011;27271;45.412;10.852;2023-05-07T14:57:35;3.78;;;2.22;;
41546;SDS011;27271;45.412;10.852;2023-05-07T15:00:57;5.38;;;2.95;;
41546;SDS011;27271;45.412;10.852;2023-05-07T15:04:20;6.95;;;3.58;;
41546;SDS011;27271;45.412;10.852;2023-05-07T15:07:42;6.20;;;2.55;;
41546;SDS011;27271;45.412;10.852;2023-05-07T15:11:06;3.22;;;2.30;;
41546;SDS011;27271;45.412;10.852;2023-05-07T15:14:28;3.45;;;1.88;;
41546;SDS011;27271;45.412;10.852;2023-05-07T15:17:49;5.63;;;2.05;;
41546;SDS011;27271;45.412;10.852;2023-05-07T15:21:12;4.22;;;2.13;;
41546;SDS011;27271;45.412;10.852;2023-05-07T15:24:35;2.95;;;2.45;;
41546;SDS011;27271;45.412;10.852;2023-05-07T15:27:57;5.05;;;2.53;;
41546;SDS011;27271;45.412;10.852;2023-05-07T15:31:19;3.70;;;2.10;;
41546;SDS011;27271;45.412;10.852;2023-05-07T15:34:41;4.03;;;2.20;;
41546;SDS011;27271;45.412;10.852;2023-05-07T15:38:04;4.45;;;2.97;;
41546;SDS011;27271;45.412;10.852;2023-05-07T15:41:26;2.25;;;1.60;;
41546;SDS011;27271;45.412;10.852;2023-05-07T15:44:48;4.00;;;3.25;;
41546;SDS011;27271;45.412;10.852;2023-05-07T15:48:10;3.17;;;1.42;;
41546;SDS011;27271;45.412;10.852;2023-05-07T15:51:33;4.95;;;2.25;;
41546;SDS011;27271;45.412;10.852;2023-05-07T15:54:56;3.25;;;2.58;;
41546;SDS011;27271;45.412;10.852;2023-05-07T15:58:19;2.60;;;2.00;;
41546;SDS011;27271;45.412;10.852;2023-05-07T16:01:41;5.97;;;3.30;;
41546;SDS011;27271;45.412;10.852;2023-05-07T16:05:05;2.47;;;1.92;;
41546;SDS011;27271;45.412;10.852;2023-05-07T16:08:32;1.88;;;1.60;;
41546;SDS011;27271;45.412;10.852;2023-05-07T16:11:54;3.00;;;2.10;;
41546;SDS011;27271;45.412;10.852;2023-05-07T16:15:16;3.35;;;1.73;;
41546;SDS011;27271;45.412;10.852;2023-05-07T16:18:38;4.45;;;2.30;;
41546;SDS011;27271;45.412;10.852;2023-05-07T16:22:01;2.30;;;1.92;;
41546;SDS011;27271;45.412;10.852;2023-05-07T16:25:23;2.80;;;1.70;;
41546;SDS011;27271;45.412;10.852;2023-05-07T16:28:45;3.83;;;2.58;;
41546;SDS011;27271;45.412;10.852;2023-05-07T16:32:07;5.32;;;2.92;;
41546;SDS011;27271;45.412;10.852;2023-05-07T16:35:30;3.03;;;2.25;;
41546;SDS011;27271;45.412;10.852;2023-05-07T16:38:52;2.58;;;2.05;;
41546;SDS011;27271;45.412;10.852;2023-05-07T16:42:14;2.10;;;1.85;;
41546;SDS011;27271;45.412;10.852;2023-05-07T16:45:36;3.13;;;1.77;;
41546;SDS011;27271;45.412;10.852;2023-05-07T16:48:58;2.40;;;1.98;;
41546;SDS011;27271;45.412;10.852;2023-05-07T16:52:20;3.00;;;1.80;;
41546;SDS011;27271;45.412;10.852;2023-05-07T16:55:42;3.78;;;2.22;;
41546;SDS011;27271;45.412;10.852;2023-05-07T16:59:04;3.97;;;2.60;;
41546;SDS011;27271;45.412;10.852;2023-05-07T17:02:27;3.03;;;1.88;;
41546;SDS011;27271;45.412;10.852;2023-05-07T17:05:50;3.35;;;2.10;;
41546;SDS011;27271;45.412;10.852;2023-05-07T17:09:13;2.67;;;1.88;;
41546;SDS011;27271;45.412;10.852;2023-05-07T17:12:35;2.28;;;1.17;;
41546;SDS011;27271;45.412;10.852;2023-05-07T17:15:58;3.90;;;1.23;;
41546;SDS011;27271;45.412;10.852;2023-05-07T17:19:20;2.33;;;1.85;;
41546;SDS011;27271;45.412;10.852;2023-05-07T17:22:43;2.28;;;1.67;;
41546;SDS011;27271;45.412;10.852;2023-05-07T17:26:10;4.30;;;2.47;;
41546;SDS011;27271;45.412;10.852;2023-05-07T17:29:33;3.25;;;2.05;;
41546;SDS011;27271;45.412;10.852;2023-05-07T17:32:55;4.93;;;2.80;;
41546;SDS011;27271;45.412;10.852;2023-05-07T17:36:33;3.13;;;2.08;;
41546;SDS011;27271;45.412;10.852;2023-05-07T17:39:55;2.33;;;1.50;;
41546;SDS011;27271;45.412;10.852;2023-05-07T17:43:17;1.98;;;1.73;;
41546;SDS011;27271;45.412;10.852;2023-05-07T17:46:39;2.53;;;1.92;;
41546;SDS011;27271;45.412;10.852;2023-05-07T17:50:01;3.58;;;1.85;;
41546;SDS011;27271;45.412;10.852;2023-05-07T17:53:26;4.88;;;2.50;;
41546;SDS011;27271;45.412;10.852;2023-05-07T17:56:48;4.78;;;1.50;;
41546;SDS011;27271;45.412;10.852;2023-05-07T18:00:11;2.75;;;2.10;;
41546;SDS011;27271;45.412;10.852;2023-05-07T18:03:33;2.78;;;1.90;;
41546;SDS011;27271;45.412;10.852;2023-05-07T18:06:57;6.68;;;3.03;;
41546;SDS011;27271;45.412;10.852;2023-05-07T18:10:19;3.55;;;2.50;;
41546;SDS011;27271;45.412;10.852;2023-05-07T18:13:41;5.15;;;2.90;;
41546;SDS011;27271;45.412;10.852;2023-05-07T18:17:03;6.10;;;3.13;;
41546;SDS011;27271;45.412;10.852;2023-05-07T18:20:25;3.67;;;1.75;;
41546;SDS011;27271;45.412;10.852;2023-05-07T18:23:47;3.30;;;1.90;;
41546;SDS011;27271;45.412;10.852;2023-05-07T18:27:09;2.00;;;1.35;;
41546;SDS011;27271;45.412;10.852;2023-05-07T18:30:33;3.13;;;2.33;;
41546;SDS011;27271;45.412;10.852;2023-05-07T18:33:55;3.60;;;2.20;;
41546;SDS011;27271;45.412;10.852;2023-05-07T18:37:18;4.63;;;2.70;;
41546;SDS011;27271;45.412;10.852;2023-05-07T18:40:40;4.90;;;2.97;;
41546;SDS011;27271;45.412;10.852;2023-05-07T18:44:04;4.95;;;2.72;;
41546;SDS011;27271;45.412;10.852;2023-05-07T18:47:27;2.25;;;2.08;;
41546;SDS011;27271;45.412;10.852;2023-05-07T18:50:49;4.20;;;2.50;;
41546;SDS011;27271;45.412;10.852;2023-05-07T18:54:11;4.88;;;2.38;;
41546;SDS011;27271;45.412;10.852;2023-05-07T18:57:33;4.20;;;1.85;;
41546;SDS011;27271;45.412;10.852;2023-05-07T19:00:55;2.50;;;2.05;;
41546;SDS011;27271;45.412;10.852;2023-05-07T19:04:17;2.67;;;2.03;;
41546;SDS011;27271;45.412;10.852;2023-05-07T19:07:39;3.25;;;2.58;;
41546;SDS011;27271;45.412;10.852;2023-05-07T19:11:01;8.15;;;3.15;;
41546;SDS011;27271;45.412;10.852;2023-05-07T19:14:24;5.20;;;2.17;;
41546;SDS011;27271;45.412;10.852;2023-05-07T19:17:46;3.58;;;3.28;;
41546;SDS011;27271;45.412;10.852;2023-05-07T19:21:08;2.58;;;2.20;;
41546;SDS011;27271;45.412;10.852;2023-05-07T19:24:30;3.55;;;2.28;;
41546;SDS011;27271;45.412;10.852;2023-05-07T19:27:53;5.03;;;3.28;;
41546;SDS011;27271;45.412;10.852;2023-05-07T19:31:17;3.95;;;2.55;;
41546;SDS011;27271;45.412;10.852;2023-05-07T19:34:40;7.03;;;4.28;;
41546;SDS011;27271;45.412;10.852;2023-05-07T19:38:02;7.07;;;3.65;;
41546;SDS011;27271;45.412;10.852;2023-05-07T19:41:25;8.98;;;3.85;;
41546;SDS011;27271;45.412;10.852;2023-05-07T19:44:49;5.75;;;3.72;;
41546;SDS011;27271;45.412;10.852;2023-05-07T19:48:11;8.55;;;3.63;;
41546;SDS011;27271;45.412;10.852;2023-05-07T19:51:34;7.68;;;3.20;;
41546;SDS011;27271;45.412;10.852;2023-05-07T19:54:55;5.03;;;3.13;;
41546;SDS011;27271;45.412;10.852;2023-05-07T19:58:18;7.45;;;3.78;;
41546;SDS011;27271;45.412;10.852;2023-05-07T20:01:40;3.85;;;3.38;;
41546;SDS011;27271;45.412;10.852;2023-05-07T20:05:02;4.18;;;2.92;;
41546;SDS011;27271;45.412;10.852;2023-05-07T20:08:24;6.40;;;3.45;;
41546;SDS011;27271;45.412;10.852;2023-05-07T20:11:47;5.90;;;3.70;;
41546;SDS011;27271;45.412;10.852;2023-05-07T20:15:10;7.78;;;5.30;;
41546;SDS011;27271;45.412;10.852;2023-05-07T20:18:32;4.30;;;2.55;;
41546;SDS011;27271;45.412;10.852;2023-05-07T20:21:54;5.45;;;3.22;;